sensor_id;sensor_type;location;lat;lon;timestamp;P1;durP1;ratioP1;P2;durP2;ratioP2
51266;SDS011;37338;47.426;19.204;2023-07-31T00:00:27;2.53;;;2.33;;
51266;SDS011;37338;47.426;19.204;2023-07-31T00:02:52;2.55;;;1.55;;
51266;SDS011;37338;47.426;19.204;2023-07-31T00:05:18;2.35;;;2.15;;
51266;SDS011;37338;47.426;19.204;2023-07-31T00:07:43;2.50;;;1.85;;
51266;SDS011;37338;47.426;19.204;2023-07-31T00:10:09;1.67;;;1.58;;
51266;SDS011;37338;47.426;19.204;2023-07-31T00:12:34;1.85;;;1.75;;
51266;SDS011;37338;47.426;19.204;2023-07-31T00:15:00;1.42;;;1.20;;
51266;SDS011;37338;47.426;19.204;2023-07-31T00:17:25;1.95;;;1.45;;
51266;SDS011;37338;47.426;19.204;2023-07-31T00:19:51;3.40;;;1.48;;
51266;SDS011;37338;47.426;19.204;2023-07-31T00:22:16;1.67;;;1.50;;
51266;SDS011;37338;47.426;19.204;2023-07-31T00:24:42;3.45;;;1.95;;
51266;SDS011;37338;47.426;19.204;2023-07-31T00:27:07;1.50;;;1.40;;
51266;SDS011;37338;47.426;19.204;2023-07-31T00:29:33;1.30;;;1.20;;
51266;SDS011;37338;47.426;19.204;2023-07-31T00:31:58;3.33;;;1.75;;
51266;SDS011;37338;47.426;19.204;2023-07-31T00:34:23;1.85;;;1.40;;
51266;SDS011;37338;47.426;19.204;2023-07-31T00:36:49;3.03;;;1.58;;
51266;SDS011;37338;47.426;19.204;2023-07-31T00:39:14;2.88;;;1.77;;
51266;SDS011;37338;47.426;19.204;2023-07-31T00:41:40;2.10;;;1.45;;
51266;SDS011;37338;47.426;19.204;2023-07-31T00:44:05;3.25;;;1.50;;
51266;SDS011;37338;47.426;19.204;2023-07-31T00:46:30;3.08;;;1.75;;
51266;SDS011;37338;47.426;19.204;2023-07-31T00:48:56;2.30;;;1.48;;
51266;SDS011;37338;47.426;19.204;2023-07-31T00:51:21;2.75;;;1.50;;
51266;SDS011;37338;47.426;19.204;2023-07-31T00:53:47;2.85;;;1.73;;
51266;SDS011;37338;47.426;19.204;2023-07-31T00:56:12;1.90;;;1.52;;
51266;SDS011;37338;47.426;19.204;2023-07-31T00:58:38;4.20;;;1.50;;
51266;SDS011;37338;47.426;19.204;2023-07-31T01:01:04;4.38;;;1.45;;
51266;SDS011;37338;47.426;19.204;2023-07-31T01:03:29;2.20;;;1.27;;
51266;SDS011;37338;47.426;19.204;2023-07-31T01:05:58;4.97;;;1.42;;
51266;SDS011;37338;47.426;19.204;2023-07-31T01:08:32;4.30;;;1.95;;
51266;SDS011;37338;47.426;19.204;2023-07-31T01:11:07;1.98;;;1.58;;
51266;SDS011;37338;47.426;19.204;2023-07-31T01:13:39;4.72;;;1.27;;
51266;SDS011;37338;47.426;19.204;2023-07-31T01:16:04;1.50;;;1.30;;
51266;SDS011;37338;47.426;19.204;2023-07-31T01:18:29;4.88;;;1.63;;
51266;SDS011;37338;47.426;19.204;2023-07-31T01:20:57;1.35;;;1.20;;
51266;SDS011;37338;47.426;19.204;2023-07-31T01:26:22;2.30;;;1.42;;
51266;SDS011;37338;47.426;19.204;2023-07-31T01:31:20;4.28;;;1.67;;
51266;SDS011;37338;47.426;19.204;2023-07-31T01:33:48;3.60;;;1.50;;
51266;SDS011;37338;47.426;19.204;2023-07-31T01:36:15;5.07;;;1.50;;
51266;SDS011;37338;47.426;19.204;2023-07-31T01:38:40;1.38;;;1.25;;
51266;SDS011;37338;47.426;19.204;2023-07-31T01:41:06;3.13;;;1.70;;
51266;SDS011;37338;47.426;19.204;2023-07-31T01:43:31;1.75;;;1.00;;
51266;SDS011;37338;47.426;19.204;2023-07-31T01:45:57;2.45;;;1.30;;
51266;SDS011;37338;47.426;19.204;2023-07-31T01:48:22;1.55;;;1.08;;
51266;SDS011;37338;47.426;19.204;2023-07-31T01:50:47;2.17;;;1.67;;
51266;SDS011;37338;47.426;19.204;2023-07-31T01:53:13;1.85;;;1.65;;
51266;SDS011;37338;47.426;19.204;2023-07-31T01:55:38;2.10;;;1.70;;
51266;SDS011;37338;47.426;19.204;2023-07-31T01:58:04;1.88;;;1.55;;
51266;SDS011;37338;47.426;19.204;2023-07-31T02:00:29;2.97;;;1.55;;
51266;SDS011;37338;47.426;19.204;2023-07-31T02:02:54;2.15;;;1.70;;
51266;SDS011;37338;47.426;19.204;2023-07-31T02:05:20;2.92;;;1.75;;
51266;SDS011;37338;47.426;19.204;2023-07-31T02:07:45;2.10;;;1.90;;
51266;SDS011;37338;47.426;19.204;2023-07-31T02:10:11;6.38;;;1.98;;
51266;SDS011;37338;47.426;19.204;2023-07-31T02:12:36;4.90;;;2.00;;
51266;SDS011;37338;47.426;19.204;2023-07-31T02:15:01;2.13;;;1.80;;
51266;SDS011;37338;47.426;19.204;2023-07-31T02:17:27;4.38;;;2.33;;
51266;SDS011;37338;47.426;19.204;2023-07-31T02:19:53;3.00;;;2.33;;
51266;SDS011;37338;47.426;19.204;2023-07-31T02:22:19;3.65;;;2.05;;
51266;SDS011;37338;47.426;19.204;2023-07-31T02:24:44;3.00;;;2.05;;
51266;SDS011;37338;47.426;19.204;2023-07-31T02:27:10;2.25;;;2.00;;
51266;SDS011;37338;47.426;19.204;2023-07-31T02:29:35;3.03;;;1.80;;
51266;SDS011;37338;47.426;19.204;2023-07-31T02:32:00;2.42;;;1.70;;
51266;SDS011;37338;47.426;19.204;2023-07-31T02:34:26;5.65;;;2.17;;
51266;SDS011;37338;47.426;19.204;2023-07-31T02:36:51;3.10;;;2.25;;
51266;SDS011;37338;47.426;19.204;2023-07-31T02:39:16;2.30;;;2.10;;
51266;SDS011;37338;47.426;19.204;2023-07-31T02:41:42;2.85;;;1.83;;
51266;SDS011;37338;47.426;19.204;2023-07-31T02:44:07;2.20;;;1.63;;
51266;SDS011;37338;47.426;19.204;2023-07-31T02:46:32;7.20;;;1.90;;
51266;SDS011;37338;47.426;19.204;2023-07-31T02:48:58;3.78;;;1.95;;
51266;SDS011;37338;47.426;19.204;2023-07-31T02:51:23;2.03;;;1.80;;
51266;SDS011;37338;47.426;19.204;2023-07-31T02:53:49;4.45;;;2.33;;
51266;SDS011;37338;47.426;19.204;2023-07-31T02:56:14;3.15;;;1.95;;
51266;SDS011;37338;47.426;19.204;2023-07-31T02:58:40;1.90;;;1.70;;
51266;SDS011;37338;47.426;19.204;2023-07-31T03:01:05;4.28;;;2.58;;
51266;SDS011;37338;47.426;19.204;2023-07-31T03:03:30;4.03;;;2.13;;
51266;SDS011;37338;47.426;19.204;2023-07-31T03:05:56;2.17;;;1.70;;
51266;SDS011;37338;47.426;19.204;2023-07-31T03:08:21;1.92;;;1.67;;
51266;SDS011;37338;47.426;19.204;2023-07-31T03:10:46;4.93;;;1.85;;
51266;SDS011;37338;47.426;19.204;2023-07-31T03:13:12;3.30;;;1.63;;
51266;SDS011;37338;47.426;19.204;2023-07-31T03:15:37;1.27;;;1.17;;
51266;SDS011;37338;47.426;19.204;2023-07-31T03:18:03;2.80;;;1.50;;
51266;SDS011;37338;47.426;19.204;2023-07-31T03:20:28;1.45;;;1.33;;
51266;SDS011;37338;47.426;19.204;2023-07-31T03:22:53;2.50;;;1.73;;
51266;SDS011;37338;47.426;19.204;2023-07-31T03:25:19;2.50;;;1.48;;
51266;SDS011;37338;47.426;19.204;2023-07-31T03:27:44;4.10;;;1.63;;
51266;SDS011;37338;47.426;19.204;2023-07-31T03:30:09;6.10;;;1.58;;
51266;SDS011;37338;47.426;19.204;2023-07-31T03:32:35;2.38;;;1.52;;
51266;SDS011;37338;47.426;19.204;2023-07-31T03:35:00;3.13;;;1.30;;
51266;SDS011;37338;47.426;19.204;2023-07-31T03:37:26;1.95;;;1.30;;
51266;SDS011;37338;47.426;19.204;2023-07-31T03:39:51;3.17;;;1.40;;
51266;SDS011;37338;47.426;19.204;2023-07-31T03:42:17;2.63;;;1.27;;
51266;SDS011;37338;47.426;19.204;2023-07-31T03:44:42;3.70;;;1.58;;
51266;SDS011;37338;47.426;19.204;2023-07-31T03:47:07;2.67;;;1.50;;
51266;SDS011;37338;47.426;19.204;2023-07-31T03:49:33;6.35;;;1.48;;
51266;SDS011;37338;47.426;19.204;2023-07-31T03:51:58;4.60;;;1.30;;
51266;SDS011;37338;47.426;19.204;2023-07-31T03:54:23;5.05;;;1.40;;
51266;SDS011;37338;47.426;19.204;2023-07-31T03:56:50;1.60;;;1.30;;
51266;SDS011;37338;47.426;19.204;2023-07-31T03:59:15;3.72;;;1.58;;
51266;SDS011;37338;47.426;19.204;2023-07-31T04:01:41;4.00;;;1.33;;
51266;SDS011;37338;47.426;19.204;2023-07-31T04:04:06;2.00;;;1.20;;
51266;SDS011;37338;47.426;19.204;2023-07-31T04:06:31;2.72;;;1.13;;
51266;SDS011;37338;47.426;19.204;2023-07-31T04:08:57;1.23;;;1.05;;
51266;SDS011;37338;47.426;19.204;2023-07-31T04:11:22;1.98;;;1.20;;
51266;SDS011;37338;47.426;19.204;2023-07-31T04:13:48;1.48;;;0.90;;
51266;SDS011;37338;47.426;19.204;2023-07-31T04:16:13;2.28;;;0.95;;
51266;SDS011;37338;47.426;19.204;2023-07-31T04:18:39;3.38;;;1.30;;
51266;SDS011;37338;47.426;19.204;2023-07-31T04:21:04;2.35;;;0.93;;
51266;SDS011;37338;47.426;19.204;2023-07-31T04:23:30;1.60;;;1.20;;
51266;SDS011;37338;47.426;19.204;2023-07-31T04:25:55;1.60;;;1.23;;
51266;SDS011;37338;47.426;19.204;2023-07-31T04:28:21;4.82;;;1.30;;
51266;SDS011;37338;47.426;19.204;2023-07-31T04:30:47;1.55;;;1.45;;
51266;SDS011;37338;47.426;19.204;2023-07-31T04:33:12;1.88;;;1.10;;
51266;SDS011;37338;47.426;19.204;2023-07-31T04:35:38;2.03;;;0.93;;
51266;SDS011;37338;47.426;19.204;2023-07-31T04:38:03;2.40;;;1.30;;
51266;SDS011;37338;47.426;19.204;2023-07-31T04:40:29;2.00;;;0.85;;
51266;SDS011;37338;47.426;19.204;2023-07-31T04:42:54;4.00;;;1.17;;
51266;SDS011;37338;47.426;19.204;2023-07-31T04:45:19;2.78;;;1.17;;
51266;SDS011;37338;47.426;19.204;2023-07-31T04:47:45;2.38;;;1.20;;
51266;SDS011;37338;47.426;19.204;2023-07-31T04:50:10;1.92;;;1.10;;
51266;SDS011;37338;47.426;19.204;2023-07-31T04:52:36;5.50;;;1.00;;
51266;SDS011;37338;47.426;19.204;2023-07-31T04:55:01;1.83;;;1.30;;
51266;SDS011;37338;47.426;19.204;2023-07-31T04:57:26;3.25;;;1.25;;
51266;SDS011;37338;47.426;19.204;2023-07-31T04:59:52;1.35;;;1.02;;
51266;SDS011;37338;47.426;19.204;2023-07-31T05:02:17;3.08;;;1.08;;
51266;SDS011;37338;47.426;19.204;2023-07-31T05:04:42;1.88;;;1.00;;
51266;SDS011;37338;47.426;19.204;2023-07-31T05:07:08;4.75;;;1.13;;
51266;SDS011;37338;47.426;19.204;2023-07-31T05:09:33;4.28;;;1.30;;
51266;SDS011;37338;47.426;19.204;2023-07-31T05:11:59;4.78;;;1.33;;
51266;SDS011;37338;47.426;19.204;2023-07-31T05:14:25;2.40;;;0.70;;
51266;SDS011;37338;47.426;19.204;2023-07-31T05:16:51;5.22;;;1.10;;
51266;SDS011;37338;47.426;19.204;2023-07-31T05:19:16;2.95;;;0.73;;
51266;SDS011;37338;47.426;19.204;2023-07-31T05:21:42;2.35;;;0.85;;
51266;SDS011;37338;47.426;19.204;2023-07-31T05:24:07;2.67;;;0.70;;
51266;SDS011;37338;47.426;19.204;2023-07-31T05:26:33;2.20;;;0.90;;
51266;SDS011;37338;47.426;19.204;2023-07-31T05:28:58;3.72;;;0.98;;
51266;SDS011;37338;47.426;19.204;2023-07-31T05:31:23;2.13;;;0.90;;
51266;SDS011;37338;47.426;19.204;2023-07-31T05:33:49;1.75;;;1.00;;
51266;SDS011;37338;47.426;19.204;2023-07-31T05:36:15;2.10;;;0.80;;
51266;SDS011;37338;47.426;19.204;2023-07-31T05:38:41;1.55;;;0.90;;
51266;SDS011;37338;47.426;19.204;2023-07-31T05:41:09;1.98;;;0.85;;
51266;SDS011;37338;47.426;19.204;2023-07-31T05:43:34;5.68;;;0.70;;
51266;SDS011;37338;47.426;19.204;2023-07-31T05:46:00;0.68;;;0.50;;
51266;SDS011;37338;47.426;19.204;2023-07-31T05:48:26;1.00;;;0.85;;
51266;SDS011;37338;47.426;19.204;2023-07-31T05:50:51;2.90;;;1.40;;
51266;SDS011;37338;47.426;19.204;2023-07-31T05:53:17;1.15;;;0.80;;
51266;SDS011;37338;47.426;19.204;2023-07-31T05:55:42;3.58;;;0.85;;
51266;SDS011;37338;47.426;19.204;2023-07-31T05:58:07;1.58;;;0.80;;
51266;SDS011;37338;47.426;19.204;2023-07-31T06:00:33;3.30;;;1.08;;
51266;SDS011;37338;47.426;19.204;2023-07-31T06:02:58;1.92;;;0.80;;
51266;SDS011;37338;47.426;19.204;2023-07-31T06:05:23;2.25;;;0.82;;
51266;SDS011;37338;47.426;19.204;2023-07-31T06:07:49;2.83;;;0.85;;
51266;SDS011;37338;47.426;19.204;2023-07-31T06:10:15;1.58;;;0.80;;
51266;SDS011;37338;47.426;19.204;2023-07-31T06:12:40;2.25;;;0.70;;
51266;SDS011;37338;47.426;19.204;2023-07-31T06:15:05;1.10;;;0.40;;
51266;SDS011;37338;47.426;19.204;2023-07-31T06:17:31;6.03;;;0.95;;
51266;SDS011;37338;47.426;19.204;2023-07-31T06:19:57;2.13;;;0.80;;
51266;SDS011;37338;47.426;19.204;2023-07-31T06:22:22;1.58;;;1.00;;
51266;SDS011;37338;47.426;19.204;2023-07-31T06:24:48;4.88;;;1.00;;
51266;SDS011;37338;47.426;19.204;2023-07-31T06:27:13;1.73;;;0.88;;
51266;SDS011;37338;47.426;19.204;2023-07-31T06:29:38;5.25;;;0.77;;
51266;SDS011;37338;47.426;19.204;2023-07-31T06:32:04;2.22;;;0.93;;
51266;SDS011;37338;47.426;19.204;2023-07-31T06:34:29;2.85;;;1.58;;
51266;SDS011;37338;47.426;19.204;2023-07-31T06:36:55;2.63;;;1.10;;
51266;SDS011;37338;47.426;19.204;2023-07-31T06:39:21;1.95;;;0.90;;
51266;SDS011;37338;47.426;19.204;2023-07-31T06:41:46;1.58;;;1.02;;
51266;SDS011;37338;47.426;19.204;2023-07-31T06:44:12;1.13;;;0.77;;
51266;SDS011;37338;47.426;19.204;2023-07-31T06:46:37;3.38;;;0.75;;
51266;SDS011;37338;47.426;19.204;2023-07-31T06:49:02;4.05;;;0.90;;
51266;SDS011;37338;47.426;19.204;2023-07-31T06:51:28;1.33;;;0.70;;
51266;SDS011;37338;47.426;19.204;2023-07-31T06:53:53;2.78;;;0.90;;
51266;SDS011;37338;47.426;19.204;2023-07-31T06:56:19;6.38;;;1.00;;
51266;SDS011;37338;47.426;19.204;2023-07-31T06:58:44;1.85;;;0.80;;
51266;SDS011;37338;47.426;19.204;2023-07-31T07:01:09;5.78;;;0.90;;
51266;SDS011;37338;47.426;19.204;2023-07-31T07:03:35;5.38;;;0.70;;
51266;SDS011;37338;47.426;19.204;2023-07-31T07:06:00;1.35;;;0.82;;
51266;SDS011;37338;47.426;19.204;2023-07-31T07:08:26;2.50;;;0.95;;
51266;SDS011;37338;47.426;19.204;2023-07-31T07:10:51;3.88;;;0.80;;
51266;SDS011;37338;47.426;19.204;2023-07-31T07:13:16;4.78;;;1.10;;
51266;SDS011;37338;47.426;19.204;2023-07-31T07:15:43;5.13;;;1.30;;
51266;SDS011;37338;47.426;19.204;2023-07-31T07:18:12;5.93;;;0.88;;
51266;SDS011;37338;47.426;19.204;2023-07-31T07:20:38;1.70;;;1.05;;
51266;SDS011;37338;47.426;19.204;2023-07-31T07:23:04;3.83;;;0.80;;
51266;SDS011;37338;47.426;19.204;2023-07-31T07:25:29;3.83;;;0.93;;
51266;SDS011;37338;47.426;19.204;2023-07-31T07:27:55;1.83;;;0.63;;
51266;SDS011;37338;47.426;19.204;2023-07-31T07:30:20;6.28;;;0.90;;
51266;SDS011;37338;47.426;19.204;2023-07-31T07:32:45;2.67;;;0.80;;
51266;SDS011;37338;47.426;19.204;2023-07-31T07:35:11;2.88;;;0.90;;
51266;SDS011;37338;47.426;19.204;2023-07-31T07:37:36;3.97;;;0.95;;
51266;SDS011;37338;47.426;19.204;2023-07-31T07:40:02;3.17;;;0.93;;
51266;SDS011;37338;47.426;19.204;2023-07-31T07:42:27;5.35;;;0.90;;
51266;SDS011;37338;47.426;19.204;2023-07-31T07:44:53;5.10;;;1.00;;
51266;SDS011;37338;47.426;19.204;2023-07-31T07:47:18;3.10;;;1.30;;
51266;SDS011;37338;47.426;19.204;2023-07-31T07:49:44;2.85;;;0.95;;
51266;SDS011;37338;47.426;19.204;2023-07-31T07:52:09;3.78;;;1.20;;
51266;SDS011;37338;47.426;19.204;2023-07-31T07:54:34;4.75;;;1.30;;
51266;SDS011;37338;47.426;19.204;2023-07-31T07:57:00;2.78;;;0.80;;
51266;SDS011;37338;47.426;19.204;2023-07-31T07:59:25;4.53;;;0.70;;
51266;SDS011;37338;47.426;19.204;2023-07-31T08:01:50;4.40;;;0.73;;
51266;SDS011;37338;47.426;19.204;2023-07-31T08:04:16;2.15;;;0.80;;
51266;SDS011;37338;47.426;19.204;2023-07-31T08:06:41;4.35;;;1.42;;
51266;SDS011;37338;47.426;19.204;2023-07-31T08:09:06;5.13;;;0.50;;
51266;SDS011;37338;47.426;19.204;2023-07-31T08:11:33;5.28;;;0.80;;
51266;SDS011;37338;47.426;19.204;2023-07-31T08:13:59;2.15;;;0.63;;
51266;SDS011;37338;47.426;19.204;2023-07-31T08:16:24;4.13;;;1.08;;
51266;SDS011;37338;47.426;19.204;2023-07-31T08:18:50;5.65;;;1.00;;
51266;SDS011;37338;47.426;19.204;2023-07-31T08:21:15;1.27;;;0.57;;
51266;SDS011;37338;47.426;19.204;2023-07-31T08:23:40;3.55;;;1.15;;
51266;SDS011;37338;47.426;19.204;2023-07-31T08:26:06;3.80;;;0.85;;
51266;SDS011;37338;47.426;19.204;2023-07-31T08:28:31;6.75;;;0.90;;
51266;SDS011;37338;47.426;19.204;2023-07-31T08:30:57;2.40;;;0.75;;
51266;SDS011;37338;47.426;19.204;2023-07-31T08:33:22;4.78;;;1.00;;
51266;SDS011;37338;47.426;19.204;2023-07-31T08:35:48;1.80;;;0.60;;
51266;SDS011;37338;47.426;19.204;2023-07-31T08:38:13;2.20;;;0.77;;
51266;SDS011;37338;47.426;19.204;2023-07-31T08:40:39;2.72;;;0.47;;
51266;SDS011;37338;47.426;19.204;2023-07-31T08:43:04;1.55;;;0.63;;
51266;SDS011;37338;47.426;19.204;2023-07-31T08:45:30;3.03;;;0.55;;
51266;SDS011;37338;47.426;19.204;2023-07-31T08:47:56;3.22;;;0.75;;
51266;SDS011;37338;47.426;19.204;2023-07-31T08:50:22;1.30;;;0.63;;
51266;SDS011;37338;47.426;19.204;2023-07-31T08:52:48;0.75;;;0.40;;
51266;SDS011;37338;47.426;19.204;2023-07-31T08:55:15;5.38;;;0.90;;
51266;SDS011;37338;47.426;19.204;2023-07-31T08:57:40;6.22;;;0.93;;
51266;SDS011;37338;47.426;19.204;2023-07-31T09:00:07;4.38;;;1.20;;
51266;SDS011;37338;47.426;19.204;2023-07-31T09:02:36;1.30;;;0.50;;
51266;SDS011;37338;47.426;19.204;2023-07-31T09:05:05;2.38;;;0.75;;
51266;SDS011;37338;47.426;19.204;2023-07-31T09:07:31;5.28;;;0.52;;
51266;SDS011;37338;47.426;19.204;2023-07-31T09:09:57;3.15;;;0.80;;
51266;SDS011;37338;47.426;19.204;2023-07-31T09:12:22;5.72;;;0.88;;
51266;SDS011;37338;47.426;19.204;2023-07-31T09:14:47;1.27;;;0.40;;
51266;SDS011;37338;47.426;19.204;2023-07-31T09:17:13;3.88;;;0.70;;
51266;SDS011;37338;47.426;19.204;2023-07-31T09:19:38;4.72;;;0.57;;
51266;SDS011;37338;47.426;19.204;2023-07-31T09:22:05;2.50;;;0.88;;
51266;SDS011;37338;47.426;19.204;2023-07-31T09:24:32;11.15;;;1.38;;
51266;SDS011;37338;47.426;19.204;2023-07-31T09:26:59;3.28;;;0.65;;
51266;SDS011;37338;47.426;19.204;2023-07-31T09:29:25;2.85;;;0.70;;
51266;SDS011;37338;47.426;19.204;2023-07-31T09:31:52;2.05;;;0.82;;
51266;SDS011;37338;47.426;19.204;2023-07-31T09:34:18;3.08;;;0.60;;
51266;SDS011;37338;47.426;19.204;2023-07-31T09:36:44;6.65;;;1.23;;
51266;SDS011;37338;47.426;19.204;2023-07-31T09:39:18;1.75;;;0.65;;
51266;SDS011;37338;47.426;19.204;2023-07-31T09:41:47;5.35;;;0.68;;
51266;SDS011;37338;47.426;19.204;2023-07-31T09:44:13;4.65;;;1.17;;
51266;SDS011;37338;47.426;19.204;2023-07-31T09:46:38;4.75;;;0.95;;
51266;SDS011;37338;47.426;19.204;2023-07-31T09:49:10;4.00;;;0.73;;
51266;SDS011;37338;47.426;19.204;2023-07-31T09:51:37;2.30;;;0.85;;
51266;SDS011;37338;47.426;19.204;2023-07-31T09:56:41;5.93;;;0.88;;
51266;SDS011;37338;47.426;19.204;2023-07-31T09:59:11;3.67;;;1.15;;
51266;SDS011;37338;47.426;19.204;2023-07-31T10:01:38;4.63;;;0.60;;
51266;SDS011;37338;47.426;19.204;2023-07-31T10:04:05;1.63;;;0.60;;
51266;SDS011;37338;47.426;19.204;2023-07-31T10:06:32;5.68;;;1.00;;
51266;SDS011;37338;47.426;19.204;2023-07-31T10:08:58;2.70;;;0.90;;
51266;SDS011;37338;47.426;19.204;2023-07-31T10:11:24;3.83;;;0.70;;
51266;SDS011;37338;47.426;19.204;2023-07-31T10:13:50;3.00;;;0.73;;
51266;SDS011;37338;47.426;19.204;2023-07-31T10:16:15;5.60;;;0.82;;
51266;SDS011;37338;47.426;19.204;2023-07-31T10:18:41;3.58;;;0.60;;
51266;SDS011;37338;47.426;19.204;2023-07-31T10:21:08;5.03;;;0.60;;
51266;SDS011;37338;47.426;19.204;2023-07-31T10:23:34;7.50;;;0.82;;
51266;SDS011;37338;47.426;19.204;2023-07-31T10:26:00;1.90;;;0.70;;
51266;SDS011;37338;47.426;19.204;2023-07-31T10:28:26;3.75;;;0.90;;
51266;SDS011;37338;47.426;19.204;2023-07-31T10:30:52;3.33;;;0.63;;
51266;SDS011;37338;47.426;19.204;2023-07-31T10:33:17;6.45;;;0.73;;
51266;SDS011;37338;47.426;19.204;2023-07-31T10:35:44;1.65;;;0.55;;
51266;SDS011;37338;47.426;19.204;2023-07-31T10:38:10;4.00;;;0.60;;
51266;SDS011;37338;47.426;19.204;2023-07-31T10:40:36;1.80;;;0.63;;
51266;SDS011;37338;47.426;19.204;2023-07-31T10:43:02;2.97;;;0.88;;
51266;SDS011;37338;47.426;19.204;2023-07-31T10:45:38;1.67;;;0.50;;
51266;SDS011;37338;47.426;19.204;2023-07-31T10:48:12;4.82;;;0.77;;
51266;SDS011;37338;47.426;19.204;2023-07-31T10:50:38;2.45;;;0.50;;
51266;SDS011;37338;47.426;19.204;2023-07-31T10:53:10;6.20;;;0.70;;
51266;SDS011;37338;47.426;19.204;2023-07-31T10:55:50;2.78;;;0.63;;
51266;SDS011;37338;47.426;19.204;2023-07-31T10:58:19;3.80;;;0.73;;
51266;SDS011;37338;47.426;19.204;2023-07-31T11:00:46;4.32;;;0.47;;
51266;SDS011;37338;47.426;19.204;2023-07-31T11:03:18;6.15;;;0.88;;
51266;SDS011;37338;47.426;19.204;2023-07-31T11:08:31;5.95;;;0.88;;
51266;SDS011;37338;47.426;19.204;2023-07-31T11:13:26;2.80;;;0.70;;
51266;SDS011;37338;47.426;19.204;2023-07-31T11:15:52;7.85;;;1.73;;
51266;SDS011;37338;47.426;19.204;2023-07-31T11:18:17;2.08;;;0.50;;
51266;SDS011;37338;47.426;19.204;2023-07-31T11:20:43;5.57;;;0.80;;
51266;SDS011;37338;47.426;19.204;2023-07-31T11:23:09;2.00;;;0.70;;
51266;SDS011;37338;47.426;19.204;2023-07-31T11:25:35;3.40;;;0.52;;
51266;SDS011;37338;47.426;19.204;2023-07-31T11:28:13;5.50;;;0.95;;
51266;SDS011;37338;47.426;19.204;2023-07-31T11:30:39;3.38;;;0.50;;
51266;SDS011;37338;47.426;19.204;2023-07-31T11:33:06;1.38;;;0.90;;
51266;SDS011;37338;47.426;19.204;2023-07-31T11:35:31;2.05;;;0.63;;
51266;SDS011;37338;47.426;19.204;2023-07-31T11:37:58;4.90;;;0.90;;
51266;SDS011;37338;47.426;19.204;2023-07-31T11:40:24;2.75;;;0.77;;
51266;SDS011;37338;47.426;19.204;2023-07-31T11:42:57;2.40;;;0.77;;
51266;SDS011;37338;47.426;19.204;2023-07-31T11:45:26;2.58;;;0.98;;
51266;SDS011;37338;47.426;19.204;2023-07-31T11:47:53;1.95;;;0.77;;
51266;SDS011;37338;47.426;19.204;2023-07-31T11:50:19;4.32;;;0.75;;
51266;SDS011;37338;47.426;19.204;2023-07-31T11:52:44;2.05;;;0.60;;
51266;SDS011;37338;47.426;19.204;2023-07-31T11:55:11;2.40;;;0.60;;
51266;SDS011;37338;47.426;19.204;2023-07-31T11:57:38;1.92;;;0.60;;
51266;SDS011;37338;47.426;19.204;2023-07-31T12:00:05;3.15;;;0.80;;
51266;SDS011;37338;47.426;19.204;2023-07-31T12:02:32;1.75;;;0.60;;
51266;SDS011;37338;47.426;19.204;2023-07-31T12:04:57;2.53;;;1.10;;
51266;SDS011;37338;47.426;19.204;2023-07-31T12:07:23;5.22;;;0.80;;
51266;SDS011;37338;47.426;19.204;2023-07-31T12:09:55;3.17;;;0.73;;
51266;SDS011;37338;47.426;19.204;2023-07-31T12:12:22;4.13;;;0.77;;
51266;SDS011;37338;47.426;19.204;2023-07-31T12:14:48;3.25;;;0.80;;
51266;SDS011;37338;47.426;19.204;2023-07-31T12:17:13;1.10;;;0.52;;
51266;SDS011;37338;47.426;19.204;2023-07-31T12:19:39;3.05;;;0.90;;
51266;SDS011;37338;47.426;19.204;2023-07-31T12:22:14;6.38;;;0.90;;
51266;SDS011;37338;47.426;19.204;2023-07-31T12:24:42;2.35;;;0.52;;
51266;SDS011;37338;47.426;19.204;2023-07-31T12:27:18;1.58;;;0.77;;
51266;SDS011;37338;47.426;19.204;2023-07-31T12:29:43;2.33;;;0.50;;
51266;SDS011;37338;47.426;19.204;2023-07-31T12:32:24;1.92;;;0.52;;
51266;SDS011;37338;47.426;19.204;2023-07-31T12:34:50;1.95;;;0.43;;
51266;SDS011;37338;47.426;19.204;2023-07-31T12:37:16;1.98;;;0.68;;
51266;SDS011;37338;47.426;19.204;2023-07-31T12:39:41;2.35;;;1.08;;
51266;SDS011;37338;47.426;19.204;2023-07-31T12:42:07;5.05;;;0.93;;
51266;SDS011;37338;47.426;19.204;2023-07-31T12:44:32;4.22;;;1.20;;
51266;SDS011;37338;47.426;19.204;2023-07-31T12:46:57;2.38;;;0.65;;
51266;SDS011;37338;47.426;19.204;2023-07-31T12:49:23;2.72;;;0.43;;
51266;SDS011;37338;47.426;19.204;2023-07-31T12:51:48;2.17;;;0.50;;
51266;SDS011;37338;47.426;19.204;2023-07-31T12:54:14;1.60;;;0.47;;
51266;SDS011;37338;47.426;19.204;2023-07-31T12:56:39;3.95;;;0.57;;
51266;SDS011;37338;47.426;19.204;2023-07-31T12:59:05;2.65;;;1.33;;
51266;SDS011;37338;47.426;19.204;2023-07-31T13:01:31;3.05;;;0.80;;
51266;SDS011;37338;47.426;19.204;2023-07-31T13:03:56;2.85;;;0.50;;
51266;SDS011;37338;47.426;19.204;2023-07-31T13:06:22;5.90;;;1.27;;
51266;SDS011;37338;47.426;19.204;2023-07-31T13:08:47;1.50;;;0.50;;
51266;SDS011;37338;47.426;19.204;2023-07-31T13:11:13;3.00;;;0.70;;
51266;SDS011;37338;47.426;19.204;2023-07-31T13:13:38;3.63;;;0.40;;
51266;SDS011;37338;47.426;19.204;2023-07-31T13:16:03;3.13;;;0.60;;
51266;SDS011;37338;47.426;19.204;2023-07-31T13:18:29;4.10;;;1.00;;
51266;SDS011;37338;47.426;19.204;2023-07-31T13:20:54;4.35;;;0.88;;
51266;SDS011;37338;47.426;19.204;2023-07-31T13:23:20;5.13;;;0.90;;
51266;SDS011;37338;47.426;19.204;2023-07-31T13:25:45;6.15;;;0.45;;
51266;SDS011;37338;47.426;19.204;2023-07-31T13:28:10;3.50;;;1.08;;
51266;SDS011;37338;47.426;19.204;2023-07-31T13:30:36;2.15;;;0.55;;
51266;SDS011;37338;47.426;19.204;2023-07-31T13:33:01;2.00;;;0.30;;
51266;SDS011;37338;47.426;19.204;2023-07-31T13:35:27;3.25;;;0.60;;
51266;SDS011;37338;47.426;19.204;2023-07-31T13:37:53;3.63;;;0.95;;
51266;SDS011;37338;47.426;19.204;2023-07-31T13:40:18;3.45;;;0.60;;
51266;SDS011;37338;47.426;19.204;2023-07-31T13:42:43;2.80;;;0.80;;
51266;SDS011;37338;47.426;19.204;2023-07-31T13:45:09;2.35;;;0.65;;
51266;SDS011;37338;47.426;19.204;2023-07-31T13:47:34;1.55;;;0.65;;
51266;SDS011;37338;47.426;19.204;2023-07-31T13:50:02;5.78;;;0.63;;
51266;SDS011;37338;47.426;19.204;2023-07-31T13:52:27;3.63;;;0.60;;
51266;SDS011;37338;47.426;19.204;2023-07-31T13:54:52;5.88;;;0.95;;
51266;SDS011;37338;47.426;19.204;2023-07-31T13:57:18;3.42;;;0.47;;
51266;SDS011;37338;47.426;19.204;2023-07-31T13:59:43;3.92;;;0.60;;
51266;SDS011;37338;47.426;19.204;2023-07-31T14:02:09;3.53;;;0.60;;
51266;SDS011;37338;47.426;19.204;2023-07-31T14:04:34;3.72;;;1.00;;
51266;SDS011;37338;47.426;19.204;2023-07-31T14:06:59;2.78;;;0.68;;
51266;SDS011;37338;47.426;19.204;2023-07-31T14:09:25;1.45;;;0.60;;
51266;SDS011;37338;47.426;19.204;2023-07-31T14:11:51;1.67;;;0.60;;
51266;SDS011;37338;47.426;19.204;2023-07-31T14:14:17;1.50;;;0.40;;
51266;SDS011;37338;47.426;19.204;2023-07-31T14:16:44;1.77;;;0.82;;
51266;SDS011;37338;47.426;19.204;2023-07-31T14:19:09;2.35;;;0.70;;
51266;SDS011;37338;47.426;19.204;2023-07-31T14:21:35;4.05;;;0.77;;
51266;SDS011;37338;47.426;19.204;2023-07-31T14:24:01;5.50;;;1.23;;
51266;SDS011;37338;47.426;19.204;2023-07-31T14:26:26;1.80;;;0.60;;
51266;SDS011;37338;47.426;19.204;2023-07-31T14:28:52;2.53;;;0.80;;
51266;SDS011;37338;47.426;19.204;2023-07-31T14:31:17;5.25;;;0.70;;
51266;SDS011;37338;47.426;19.204;2023-07-31T14:33:42;1.10;;;0.50;;
51266;SDS011;37338;47.426;19.204;2023-07-31T14:36:08;1.55;;;0.80;;
51266;SDS011;37338;47.426;19.204;2023-07-31T14:38:33;1.92;;;0.57;;